Time;durP1;ratioP1;P1;durP2;ratioP2;P2;SDS_P1;SDS_P2;PMS_P1;PMS_P2;Temp;Humidity;BMP_temperature;BMP_pressure;BME280_temperature;BME280_humidity;BME280_pressure;Samples;Min_cycle;Max_cycle;Signal;HPM_P1;HPM_P2
2023/09/25 10:28:39;;;;;;;11.40;4.10;;;;;;;29.30;100.00;100620.59;107477;1251;67397;-74
2023/09/25 10:31:21;;;;;;;18.20;4.10;;;;;;;29.39;100.00;100613.20;106307;1255;62286;-76
2023/09/25 10:34:00;;;;;;;21.00;3.80;;;;;;;29.40;100.00;100612.43;106765;1251;64028;-76
2023/09/25 10:36:41;;;;;;;12.60;3.40;;;;;;;29.47;100.00;100612.42;106820;1255;61196;-76
2023/09/25 10:39:08;;;;;;;8.90;3.40;;;;;;;29.58;100.00;100607.44;107340;1251;61269;-74
2023/09/25 10:41:35;;;;;;;14.60;3.70;;;;;;;29.64;100.00;100609.91;106659;1256;65568;-78
2023/09/25 10:44:02;;;;;;;10.10;3.40;;;;;;;29.69;99.76;100611.77;106619;1254;62322;-76
2023/09/25 10:46:30;;;;;;;15.00;3.40;;;;;;;29.77;97.90;100611.05;106595;1256;64718;-76
2023/09/25 10:48:57;;;;;;;8.40;3.20;;;;;;;29.85;95.83;100613.67;106976;1254;61326;-76
2023/09/25 10:51:24;;;;;;;15.20;3.40;;;;;;;29.94;94.88;100608.99;106652;1256;61148;-74
2023/09/25 10:53:51;;;;;;;16.30;3.40;;;;;;;30.04;89.62;100606.19;107195;1255;75237;-75
2023/09/25 10:56:18;;;;;;;13.70;3.10;;;;;;;30.11;84.28;100598.80;106492;1251;62584;-75
2023/09/25 10:58:50;;;;;;;14.20;3.50;;;;;;;30.16;78.11;100601.53;106404;1257;64140;-76
2023/09/25 11:01:43;;;;;;;15.90;3.60;;;;;;;30.23;78.66;100598.45;107177;1251;61260;-76
2023/09/25 11:04:11;;;;;;;16.20;4.20;;;;;;;30.32;79.46;100595.02;107367;1254;61261;-76
2023/09/25 11:06:38;;;;;;;11.80;3.50;;;;;;;30.41;80.32;100595.29;107243;1251;64442;-74
2023/09/25 11:09:05;;;;;;;12.20;3.60;;;;;;;30.48;75.03;100595.45;106809;1251;63871;-75
2023/09/25 11:11:32;;;;;;;15.80;2.90;;;;;;;30.57;75.30;100592.60;106508;1255;64004;-75
2023/09/25 11:13:58;;;;;;;9.20;3.50;;;;;;;30.68;76.73;100588.89;107005;1254;61919;-75
2023/09/25 11:16:25;;;;;;;12.90;3.30;;;;;;;30.80;74.55;100588.56;106731;1254;61289;-75
2023/09/25 11:19:15;;;;;;;22.00;3.40;;;;;;;30.90;72.45;100586.84;107015;1254;74302;-75
2023/09/25 11:21:46;;;;;;;12.10;2.70;;;;;;;30.98;64.76;100588.41;106980;1251;63858;-74
2023/09/25 11:24:13;;;;;;;8.90;3.00;;;;;;;31.04;63.48;100587.37;107220;1251;73317;-77
2023/09/25 11:26:41;;;;;;;14.40;3.30;;;;;;;31.12;62.28;100585.15;107620;1251;61126;-75
2023/09/25 11:29:08;;;;;;;21.60;2.90;;;;;;;31.20;59.05;100587.87;107204;1251;61154;-77
2023/09/25 11:31:36;;;;;;;13.50;3.00;;;;;;;31.26;58.15;100585.42;106870;1254;66795;-77
2023/09/25 11:34:23;;;;;;;13.80;3.00;;;;;;;31.35;59.94;100582.89;106993;1256;62279;-77
2023/09/25 11:36:50;;;;;;;20.30;2.80;;;;;;;31.44;59.39;100582.05;107217;1251;63923;-76
2023/09/25 11:39:17;;;;;;;12.20;2.80;;;;;;;31.52;54.08;100579.99;106731;1251;61278;-76
2023/09/25 11:41:44;;;;;;;11.40;3.10;;;;;;;31.52;52.53;100578.80;107226;1251;61201;-77
2023/09/25 11:44:12;;;;;;;14.70;3.30;;;;;;;31.47;52.53;100579.73;106620;1254;66026;-78
2023/09/25 11:46:41;;;;;;;16.10;3.60;;;;;;;31.38;53.55;100584.19;106552;1251;62430;-77
2023/09/25 11:49:08;;;;;;;14.60;2.90;;;;;;;31.33;55.84;100584.23;107402;1251;63686;-78
2023/09/25 11:51:35;;;;;;;13.90;2.90;;;;;;;31.35;54.80;100585.73;106942;1251;61358;-76
2023/09/25 11:54:03;;;;;;;12.60;3.10;;;;;;;31.40;52.10;100585.83;106963;1251;61356;-77
2023/09/25 11:56:33;;;;;;;24.30;3.40;;;;;;;31.47;51.49;100585.39;107720;1250;66019;-77
2023/09/25 11:59:00;;;;;;;16.10;4.00;;;;;;;31.55;52.80;100584.10;106474;1251;63135;-75
2023/09/25 12:01:27;;;;;;;22.20;2.90;;;;;;;31.58;50.30;100581.59;106980;1250;64046;-77
2023/09/25 12:03:54;;;;;;;10.30;3.00;;;;;;;31.59;48.67;100578.98;107285;1251;61831;-77
2023/09/25 12:06:24;;;;;;;14.40;3.20;;;;;;;31.54;48.65;100574.61;106684;1254;61189;-77
2023/09/25 12:08:51;;;;;;;14.70;3.40;;;;;;;31.54;51.67;100574.83;107073;1254;67550;-76
2023/09/25 12:11:18;;;;;;;16.20;3.30;;;;;;;31.64;54.97;100578.91;107018;1251;62346;-77
2023/09/25 12:13:45;;;;;;;17.10;3.30;;;;;;;31.80;53.61;100577.55;107304;1254;63823;-76
2023/09/25 12:16:12;;;;;;;12.00;3.00;;;;;;;31.96;51.89;100576.91;106983;1255;61263;-75
2023/09/25 12:18:39;;;;;;;14.60;3.30;;;;;;;32.11;49.85;100572.11;106892;1254;59292;-76
2023/09/25 12:21:08;;;;;;;21.90;3.10;;;;;;;32.23;50.55;100573.31;107248;1251;65758;-76
2023/09/25 12:23:35;;;;;;;14.90;3.20;;;;;;;32.31;49.15;100565.59;107381;1251;69593;-76
2023/09/25 12:26:02;;;;;;;11.80;3.30;;;;;;;32.38;51.08;100569.44;107325;1254;64119;-76
2023/09/25 12:28:32;;;;;;;13.50;3.40;;;;;;;32.51;50.93;100564.80;106719;1254;61405;-76
2023/09/25 12:30:59;;;;;;;10.90;3.10;;;;;;;32.57;49.07;100563.74;107629;1251;61220;-75
2023/09/25 12:33:26;;;;;;;15.60;3.60;;;;;;;32.61;48.26;100562.66;107328;1251;67909;-76
2023/09/25 12:35:53;;;;;;;18.70;3.30;;;;;;;32.63;50.70;100564.05;107276;1251;62514;-76
2023/09/25 12:38:20;;;;;;;11.00;3.20;;;;;;;32.69;50.08;100566.42;106893;1256;62406;-76
2023/09/25 12:40:48;;;;;;;16.70;4.40;;;;;;;32.77;49.79;100570.89;106934;1257;61275;-76
2023/09/25 12:43:15;;;;;;;10.90;3.40;;;;;;;32.83;50.89;100568.16;108049;1251;60066;-76
2023/09/25 12:45:42;;;;;;;11.50;3.50;;;;;;;32.87;52.93;100567.74;107325;1251;64705;-76
2023/09/25 12:48:09;;;;;;;10.70;3.30;;;;;;;32.89;53.19;100569.47;107235;1251;62282;-76
2023/09/25 12:50:36;;;;;;;8.30;2.90;;;;;;;32.91;54.34;100571.38;107187;1251;63654;-76
2023/09/25 12:53:03;;;;;;;12.90;3.90;;;;;;;32.93;56.75;100574.78;107030;1251;61308;-76
2023/09/25 12:55:33;;;;;;;13.20;4.20;;;;;;;32.92;56.65;100577.44;107176;1251;61260;-75
2023/09/25 12:58:00;;;;;;;13.50;3.70;;;;;;;32.91;57.61;100579.29;107290;1251;65646;-76
2023/09/25 13:00:27;;;;;;;15.40;3.50;;;;;;;32.91;58.33;100575.09;107660;1251;63203;-76
2023/09/25 13:02:55;;;;;;;12.90;3.60;;;;;;;32.96;58.75;100575.80;106733;1251;64716;-76
2023/09/25 13:05:23;;;;;;;11.00;3.60;;;;;;;33.01;59.65;100582.02;106980;1251;61234;-77
2023/09/25 13:07:50;;;;;;;14.20;3.90;;;;;;;33.06;59.36;100580.48;107515;1251;61381;-76
2023/09/25 13:10:18;;;;;;;19.30;4.10;;;;;;;33.11;58.42;100581.01;107350;1251;66027;-77
2023/09/25 13:12:44;;;;;;;17.80;4.00;;;;;;;33.12;56.77;100584.02;107511;1251;62283;-77
2023/09/25 13:15:12;;;;;;;13.80;3.00;;;;;;;33.02;53.77;100582.98;107717;1250;63851;-76
2023/09/25 13:17:39;;;;;;;12.90;3.50;;;;;;;32.89;55.34;100583.95;108047;1251;63006;-77
2023/09/25 13:20:07;;;;;;;20.20;4.10;;;;;;;32.89;57.62;100582.52;107758;1251;61251;-75
2023/09/25 13:22:34;;;;;;;15.60;3.80;;;;;;;32.91;56.99;100589.20;107984;1251;65859;-76
2023/09/25 13:25:05;;;;;;;10.30;3.80;;;;;;;32.92;55.87;100591.69;107555;1251;62518;-76
2023/09/25 13:27:32;;;;;;;11.90;4.30;;;;;;;32.93;57.19;100591.51;107704;1254;63508;-76
2023/09/25 13:29:59;;;;;;;16.60;3.80;;;;;;;32.96;58.78;100593.95;107394;1251;61426;-77
2023/09/25 13:32:26;;;;;;;17.00;4.30;;;;;;;32.93;61.10;100592.59;107459;1249;61453;-76
2023/09/25 13:34:54;;;;;;;10.40;4.10;;;;;;;32.97;62.84;100593.86;107690;1250;74708;-76
2023/09/25 13:37:20;;;;;;;17.40;4.00;;;;;;;32.99;63.69;100597.34;107861;1251;63964;-76
2023/09/25 13:39:47;;;;;;;14.60;3.90;;;;;;;32.99;64.33;100597.13;107732;1251;64861;-75
2023/09/25 13:42:14;;;;;;;10.80;3.70;;;;;;;32.99;63.87;100603.59;107262;1251;61324;-76
2023/09/25 13:44:41;;;;;;;12.60;3.60;;;;;;;32.94;64.16;100604.87;107560;1251;59464;-76
2023/09/25 13:47:11;;;;;;;18.10;3.70;;;;;;;32.93;65.87;100605.04;107864;1251;65652;-75
2023/09/25 13:49:43;;;;;;;20.90;3.90;;;;;;;32.99;63.80;100604.17;107889;1254;63447;-76
2023/09/25 13:52:10;;;;;;;18.50;3.20;;;;;;;33.02;60.76;100600.63;107902;1250;73265;-75
2023/09/25 13:54:37;;;;;;;12.30;3.50;;;;;;;33.13;61.01;100600.96;107945;1251;61155;-76
2023/09/25 13:57:03;;;;;;;12.10;3.50;;;;;;;33.32;59.48;100601.23;107718;1250;61009;-76
2023/09/25 13:59:31;;;;;;;10.40;3.60;;;;;;;33.50;59.35;100601.92;107247;1251;65725;-76
2023/09/25 14:01:57;;;;;;;9.70;3.70;;;;;;;33.72;58.08;100600.48;107525;1250;63197;-76
2023/09/25 14:04:24;;;;;;;10.40;3.70;;;;;;;33.83;56.39;100599.76;107158;1254;64812;-75
2023/09/25 14:06:53;;;;;;;5.70;3.20;;;;;;;33.70;56.32;100601.70;107581;1251;61352;-76
2023/09/25 14:09:20;;;;;;;16.60;4.50;;;;;;;33.54;58.54;100602.39;107747;1251;61217;-75
2023/09/25 14:11:47;;;;;;;12.00;3.70;;;;;;;33.63;58.66;100601.84;108047;1251;66031;-75
2023/09/25 14:14:14;;;;;;;9.50;3.60;;;;;;;34.07;56.76;100599.31;107755;1251;63434;-76
2023/09/25 14:16:41;;;;;;;12.80;3.80;;;;;;;34.60;52.82;100591.56;107411;1251;63673;-76
2023/09/25 14:19:08;;;;;;;11.00;3.80;;;;;;;35.06;50.06;100594.54;107575;1250;61237;-76
2023/09/25 14:21:35;;;;;;;9.00;3.40;;;;;;;35.41;48.44;100589.88;107630;1251;60455;-76
2023/09/25 14:24:02;;;;;;;15.10;4.00;;;;;;;35.73;47.46;100594.83;108102;1250;66650;-76
2023/09/25 14:26:29;;;;;;;16.90;3.60;;;;;;;36.01;45.20;100593.42;107326;1251;63156;-76
2023/09/25 14:28:56;;;;;;;7.00;3.50;;;;;;;36.21;43.76;100594.77;107174;1254;64570;-76
2023/09/25 14:31:24;;;;;;;8.90;3.40;;;;;;;36.30;43.01;100595.78;107148;1250;61228;-76
2023/09/25 14:33:51;;;;;;;13.30;4.00;;;;;;;36.32;42.71;100597.92;107329;1250;61202;-76
2023/09/25 14:36:18;;;;;;;7.40;3.30;;;;;;;36.23;42.96;100598.77;107448;1254;66178;-76
2023/09/25 14:38:45;;;;;;;10.70;3.50;;;;;;;36.16;43.00;100599.84;107408;1250;63354;-76
2023/09/25 14:41:12;;;;;;;17.60;3.70;;;;;;;36.07;43.18;100604.08;107303;1254;72653;-76
2023/09/25 14:43:38;;;;;;;9.90;3.90;;;;;;;35.93;43.47;100604.61;107312;1254;61147;-75
2023/09/25 14:46:05;;;;;;;11.40;3.80;;;;;;;35.71;44.64;100602.92;107612;1254;61233;-76
2023/09/25 14:48:32;;;;;;;10.40;4.10;;;;;;;35.53;45.85;100602.97;107428;1251;65458;-75
2023/09/25 14:51:02;;;;;;;6.20;3.40;;;;;;;35.31;47.32;100602.96;107468;1251;62476;-76
2023/09/25 14:53:30;;;;;;;7.60;3.10;;;;;;;35.04;49.21;100600.43;107087;1254;63784;-75
2023/09/25 14:55:57;;;;;;;9.00;3.20;;;;;;;34.78;51.16;100602.34;107214;1250;61164;-76
2023/09/25 14:58:25;;;;;;;11.80;3.60;;;;;;;34.52;53.75;100606.45;107464;1250;61232;-75
2023/09/25 15:00:57;;;;;;;8.20;3.50;;;;;;;34.25;56.84;100604.19;106754;1251;65783;-76
2023/09/25 15:03:24;;;;;;;7.30;3.40;;;;;;;33.91;59.95;100607.52;107057;1254;63228;-76
2023/09/25 15:05:51;;;;;;;9.40;3.80;;;;;;;33.56;64.02;100607.70;107265;1254;63850;-76
2023/09/25 15:08:20;;;;;;;11.50;4.20;;;;;;;33.19;68.79;100613.33;107136;1251;61373;-75
2023/09/25 15:10:47;;;;;;;13.80;3.50;;;;;;;32.82;74.25;100613.73;106565;1254;953153;-75
2023/09/25 15:13:14;;;;;;;8.90;3.60;;;;;;;32.43;80.14;100615.59;106562;1251;66722;-75
2023/09/25 15:15:41;;;;;;;6.60;4.00;;;;;;;32.02;86.21;100623.15;106546;1250;63199;-76
2023/09/25 15:18:08;;;;;;;14.40;4.10;;;;;;;31.60;93.03;100621.22;107197;1250;64840;-77
2023/09/25 15:20:35;;;;;;;10.50;4.30;;;;;;;31.20;98.68;100621.93;106997;1250;61330;-77
2023/09/25 15:23:02;;;;;;;6.60;4.20;;;;;;;30.83;100.00;100621.74;107339;1250;61302;-76
2023/09/25 15:25:30;;;;;;;7.70;3.80;;;;;;;30.44;100.00;100627.37;106833;1250;66076;-75
2023/09/25 15:27:57;;;;;;;13.50;4.10;;;;;;;30.06;100.00;100628.22;106613;1254;61276;-75
2023/09/25 15:30:24;;;;;;;10.00;4.30;;;;;;;29.72;100.00;100629.20;106880;1254;65762;-75
2023/09/25 15:32:51;;;;;;;7.40;4.20;;;;;;;29.39;100.00;100629.35;106954;1251;61264;-75
2023/09/25 15:35:20;;;;;;;7.40;4.00;;;;;;;29.04;100.00;100632.47;107226;1250;61138;-75
2023/09/25 15:37:47;;;;;;;10.90;4.40;;;;;;;28.75;100.00;100632.29;106231;1251;65399;-76
2023/09/25 15:40:14;;;;;;;11.60;4.50;;;;;;;28.45;100.00;100634.63;107077;1251;62085;-77
2023/09/25 15:42:40;;;;;;;12.40;5.00;;;;;;;28.16;100.00;100639.44;107134;1250;64041;-75
2023/09/25 15:45:08;;;;;;;13.30;4.70;;;;;;;27.86;100.00;100642.84;107219;1250;61267;-76
2023/09/25 15:47:35;;;;;;;7.20;4.40;;;;;;;27.59;100.00;100647.23;107114;1250;61336;-75
2023/09/25 15:50:02;;;;;;;12.10;5.10;;;;;;;27.35;100.00;100653.88;107136;1250;66705;-75
2023/09/25 15:52:28;;;;;;;8.40;5.00;;;;;;;27.09;100.00;100655.49;107201;1250;71049;-76
2023/09/25 15:54:55;;;;;;;10.70;4.80;;;;;;;26.86;100.00;100658.20;106770;1253;72672;-75
2023/09/25 15:57:25;;;;;;;8.60;4.50;;;;;;;26.64;100.00;100665.06;106266;1251;61346;-76
2023/09/25 15:59:52;;;;;;;9.90;4.70;;;;;;;26.45;100.00;100668.23;106665;1250;61272;-77
2023/09/25 16:02:20;;;;;;;6.20;4.80;;;;;;;26.25;100.00;100671.81;106288;1254;73868;-76
2023/09/25 16:04:47;;;;;;;11.70;5.00;;;;;;;26.05;100.00;100671.95;106946;1253;70736;-75
2023/09/25 16:07:14;;;;;;;10.90;5.10;;;;;;;25.86;100.00;100676.06;107190;1251;74097;-76
2023/09/25 16:09:41;;;;;;;9.30;5.20;;;;;;;25.68;100.00;100678.59;106243;1251;61273;-75
2023/09/25 16:12:08;;;;;;;13.10;4.90;;;;;;;25.52;100.00;100680.56;106219;1254;60522;-75
2023/09/25 16:14:34;;;;;;;7.10;4.90;;;;;;;25.35;100.00;100681.16;107297;1250;74223;-74
2023/09/25 16:17:01;;;;;;;11.60;5.10;;;;;;;25.22;100.00;100685.39;107280;1251;61154;-75
2023/09/25 16:19:28;;;;;;;10.70;5.90;;;;;;;25.05;100.00;100684.19;106879;1251;72440;-75
2023/09/25 16:21:55;;;;;;;12.50;5.50;;;;;;;24.88;100.00;100683.33;106605;1251;61272;-74
2023/09/25 16:24:21;;;;;;;11.50;4.80;;;;;;;24.75;100.00;100686.44;106795;1252;61221;-74
2023/09/25 16:26:48;;;;;;;7.60;4.60;;;;;;;24.65;100.00;100688.64;106445;1250;74332;-75
2023/09/25 16:29:15;;;;;;;11.60;4.80;;;;;;;24.55;100.00;100694.25;107331;1251;70923;-75
2023/09/25 16:31:44;;;;;;;6.40;4.40;;;;;;;24.44;100.00;100692.48;106663;1250;73033;-75
2023/09/25 16:34:11;;;;;;;10.20;4.60;;;;;;;24.34;100.00;100699.52;106858;1250;61323;-75
2023/09/25 16:36:38;;;;;;;8.60;4.90;;;;;;;24.25;100.00;100706.48;106525;1250;61337;-75
2023/09/25 16:39:07;;;;;;;7.20;4.60;;;;;;;24.16;100.00;100710.50;106846;1252;75294;-75
2023/09/25 16:41:38;;;;;;;7.40;4.40;;;;;;;24.07;100.00;100716.85;106951;1250;71571;-76
2023/09/25 16:44:05;;;;;;;8.40;4.70;;;;;;;24.00;100.00;100719.73;106152;1254;71748;-76
2023/09/25 16:46:32;;;;;;;8.20;4.70;;;;;;;23.93;100.00;100725.80;106483;1250;61332;-76
2023/09/25 16:48:59;;;;;;;5.30;4.70;;;;;;;23.82;100.00;100728.00;106312;1253;61227;-74
2023/09/25 16:51:28;;;;;;;7.40;4.50;;;;;;;23.68;100.00;100727.14;106243;1250;73667;-76
2023/09/25 16:53:56;;;;;;;8.50;4.90;;;;;;;23.60;100.00;100731.29;106173;1250;70328;-76
2023/09/25 16:56:22;;;;;;;8.20;4.10;;;;;;;23.52;100.00;100734.91;106529;1254;72151;-76
2023/09/25 16:58:49;;;;;;;6.30;4.80;;;;;;;23.41;100.00;100737.45;106553;1250;61195;-76
2023/09/25 17:01:17;;;;;;;5.80;3.90;;;;;;;23.32;100.00;100741.43;106183;1254;61254;-75
2023/09/25 17:03:44;;;;;;;10.70;4.80;;;;;;;23.20;100.00;100744.56;107558;1250;74531;-77
2023/09/25 17:06:12;;;;;;;5.30;4.80;;;;;;;23.12;100.00;100753.92;107847;1250;70314;-75
2023/09/25 17:08:39;;;;;;;4.40;3.80;;;;;;;23.05;100.00;100755.25;106947;1250;71755;-76
2023/09/25 17:11:06;;;;;;;9.80;4.70;;;;;;;23.00;100.00;100759.00;106586;1251;62132;-76
2023/09/25 17:13:32;;;;;;;11.80;4.40;;;;;;;22.92;100.00;100766.65;107238;1250;61162;-74
2023/09/25 17:16:06;;;;;;;6.00;4.60;;;;;;;22.86;100.00;100772.40;107383;1254;75039;-76
2023/09/25 17:18:32;;;;;;;8.20;3.90;;;;;;;22.82;100.00;100773.08;106196;1250;71435;-75
2023/09/25 17:21:00;;;;;;;6.20;4.40;;;;;;;22.79;100.00;100777.37;107467;1250;72769;-76
2023/09/25 17:23:26;;;;;;;8.40;4.30;;;;;;;22.71;100.00;100778.42;106575;1250;61276;-75
2023/09/25 17:25:53;;;;;;;5.20;4.00;;;;;;;22.64;100.00;100783.14;106107;1251;61346;-75
2023/09/25 17:28:20;;;;;;;8.40;3.90;;;;;;;22.59;100.00;100786.48;106149;1254;75338;-77
2023/09/25 17:30:47;;;;;;;8.80;4.00;;;;;;;22.53;100.00;100789.24;106513;1250;71461;-74
2023/09/25 17:33:33;;;;;;;6.10;4.40;;;;;;;22.43;100.00;100789.15;107003;1250;72873;-75
2023/09/25 17:36:00;;;;;;;7.00;4.00;;;;;;;22.36;100.00;100789.42;106118;1254;61189;-75
2023/09/25 17:38:29;;;;;;;5.80;4.00;;;;;;;22.32;100.00;100790.97;106126;1250;61919;-75
2023/09/25 17:40:56;;;;;;;6.90;4.30;;;;;;;22.26;100.00;100792.88;106416;1254;74721;-76
2023/09/25 17:43:25;;;;;;;6.50;4.40;;;;;;;22.21;100.00;100794.05;106173;1250;70116;-74
2023/09/25 17:45:52;;;;;;;5.50;3.90;;;;;;;22.16;100.00;100797.77;106155;1254;73407;-74
2023/09/25 17:48:19;;;;;;;6.50;4.20;;;;;;;22.12;100.00;100800.57;106112;1253;61283;-75
2023/09/25 17:50:52;;;;;;;8.70;4.00;;;;;;;22.08;100.00;100802.94;106942;1250;61273;-76
2023/09/25 17:53:19;;;;;;;5.80;4.30;;;;;;;22.03;100.00;100806.99;106126;1250;73954;-75
2023/09/25 17:55:47;;;;;;;5.40;4.20;;;;;;;22.01;100.00;100808.41;106582;1253;70825;-75
2023/09/25 17:58:15;;;;;;;9.60;4.30;;;;;;;21.96;100.00;100809.02;107238;1250;73076;-73
2023/09/25 18:00:56;;;;;;;7.30;4.40;;;;;;;21.91;100.00;100807.59;106592;1250;61352;-76
2023/09/25 18:03:23;;;;;;;7.20;4.20;;;;;;;21.86;100.00;100809.44;106587;1250;61203;-76
2023/09/25 18:05:50;;;;;;;4.50;4.10;;;;;;;21.84;100.00;100813.53;106142;1254;72870;-74
2023/09/25 18:08:17;;;;;;;10.60;4.50;;;;;;;21.79;100.00;100817.21;106553;1250;71221;-76
2023/09/25 18:10:44;;;;;;;5.50;4.20;;;;;;;21.75;100.00;100818.03;107330;1253;74269;-75
2023/09/25 18:13:11;;;;;;;8.00;4.70;;;;;;;21.70;100.00;100820.60;106929;1254;61251;-75
2023/09/25 18:15:39;;;;;;;8.00;4.60;;;;;;;21.68;100.00;100824.31;106163;1254;61342;-76
2023/09/25 18:18:07;;;;;;;6.50;4.20;;;;;;;21.66;100.00;100823.91;106503;1254;75344;-76
2023/09/25 18:20:34;;;;;;;8.40;4.50;;;;;;;21.64;100.00;100827.59;106157;1254;70034;-75
2023/09/25 18:23:00;;;;;;;5.40;4.90;;;;;;;21.60;100.00;100828.23;106786;1250;72784;-75
2023/09/25 18:25:28;;;;;;;5.40;4.80;;;;;;;21.56;100.00;100835.38;106167;1250;61398;-75
2023/09/25 18:27:55;;;;;;;8.30;5.00;;;;;;;21.53;100.00;100836.62;106546;1250;61265;-76
2023/09/25 18:30:23;;;;;;;10.00;5.20;;;;;;;21.49;100.00;100837.38;106105;1250;74740;-75
2023/09/25 18:32:50;;;;;;;9.60;4.60;;;;;;;21.44;100.00;100835.89;106538;1251;71132;-75
2023/09/25 18:35:17;;;;;;;6.70;5.10;;;;;;;21.41;100.00;100836.78;106186;1250;74114;-76
2023/09/25 18:37:43;;;;;;;8.20;4.80;;;;;;;21.37;100.00;100837.54;106982;1253;61346;-76
2023/09/25 18:40:10;;;;;;;6.00;4.60;;;;;;;21.34;100.00;100837.55;106090;1250;60594;-76
2023/09/25 18:42:38;;;;;;;9.70;5.20;;;;;;;21.30;100.00;100840.11;106111;1250;76093;-75
2023/09/25 18:45:06;;;;;;;8.30;4.30;;;;;;;21.27;100.00;100837.96;106606;1250;72676;-74
2023/09/25 18:47:35;;;;;;;12.80;5.20;;;;;;;21.25;100.00;100842.36;107358;1254;71469;-75
2023/09/25 18:50:05;;;;;;;5.90;4.60;;;;;;;21.23;100.00;100838.92;107690;1250;61285;-75
2023/09/25 18:52:34;;;;;;;8.40;4.80;;;;;;;21.17;100.00;100839.41;106173;1254;61170;-76
2023/09/25 18:55:01;;;;;;;11.70;5.50;;;;;;;21.13;100.00;100844.44;106565;1250;74009;-76
2023/09/25 18:57:28;;;;;;;7.70;4.90;;;;;;;21.08;100.00;100845.62;106689;1250;71214;-74
2023/09/25 18:59:55;;;;;;;5.50;4.70;;;;;;;21.03;100.00;100848.08;106236;1254;72218;-75
2023/09/25 19:02:23;;;;;;;9.00;5.00;;;;;;;20.98;100.00;100850.69;107236;1250;63760;-76
2023/09/25 19:04:54;;;;;;;7.00;4.90;;;;;;;20.94;100.00;100850.91;106085;1250;61446;-75
2023/09/25 19:07:21;;;;;;;8.40;5.00;;;;;;;20.90;100.00;100850.75;106672;1250;76479;-76
2023/09/25 19:09:50;;;;;;;5.40;4.80;;;;;;;20.87;100.00;100851.27;106537;1251;71452;-75
2023/09/25 19:12:18;;;;;;;8.20;5.10;;;;;;;20.84;100.00;100852.71;106201;1250;71655;-75
2023/09/25 19:14:45;;;;;;;9.00;4.90;;;;;;;20.81;100.00;100850.92;106847;1250;61961;-74
2023/09/25 19:17:11;;;;;;;9.00;4.80;;;;;;;20.76;100.00;100852.95;106628;1250;61360;-74
2023/09/25 19:19:39;;;;;;;6.70;4.50;;;;;;;20.71;100.00;100855.39;106148;1250;73657;-75
2023/09/25 19:22:08;;;;;;;7.10;4.80;;;;;;;20.68;100.00;100856.08;106154;1250;71333;-76
2023/09/25 19:24:35;;;;;;;5.80;4.70;;;;;;;20.64;100.00;100857.37;106526;1250;71281;-75
2023/09/25 19:27:03;;;;;;;8.40;4.80;;;;;;;20.61;100.00;100859.48;106932;1250;61351;-75
2023/09/25 19:29:30;;;;;;;6.80;4.80;;;;;;;20.57;100.00;100861.30;106118;1250;61604;-75
2023/09/25 19:31:57;;;;;;;5.00;4.40;;;;;;;20.54;100.00;100865.76;106525;1250;76432;-75
2023/09/25 19:34:24;;;;;;;8.40;4.90;;;;;;;20.49;100.00;100865.67;106167;1254;70157;-75
2023/09/25 19:36:51;;;;;;;10.80;5.10;;;;;;;20.45;100.00;100867.99;106127;1250;74098;-74
2023/09/25 19:39:17;;;;;;;8.80;4.90;;;;;;;20.40;100.00;100872.16;106198;1254;61341;-75
2023/09/25 19:41:44;;;;;;;9.30;4.60;;;;;;;20.38;100.00;100868.55;106181;1254;61154;-75
2023/09/25 19:44:12;;;;;;;9.90;5.00;;;;;;;20.35;100.00;100870.67;106141;1254;74650;-74
2023/09/25 19:46:39;;;;;;;10.40;4.50;;;;;;;20.30;100.00;100869.01;106510;1250;70807;-74
2023/09/25 19:49:06;;;;;;;6.10;4.50;;;;;;;20.25;100.00;100872.82;106149;1250;71491;-74
2023/09/25 19:51:37;;;;;;;6.10;4.80;;;;;;;20.21;100.00;100873.20;106210;1250;61197;-74
2023/09/25 19:54:05;;;;;;;9.80;4.70;;;;;;;20.18;100.00;100877.84;106493;1250;61446;-75
2023/09/25 19:56:32;;;;;;;10.30;5.10;;;;;;;20.14;100.00;100875.34;106804;1250;74804;-75
2023/09/25 19:58:58;;;;;;;9.50;4.70;;;;;;;20.11;100.00;100870.55;106121;1252;72521;-75
2023/09/25 20:01:26;;;;;;;5.80;5.00;;;;;;;20.06;100.00;100872.73;106221;1250;72864;-76
2023/09/25 20:03:52;;;;;;;5.40;4.60;;;;;;;20.02;100.00;100870.63;106544;1250;61353;-75
2023/09/25 20:06:20;;;;;;;6.10;4.70;;;;;;;19.99;100.00;100870.98;106945;1250;61356;-74
2023/09/25 20:08:47;;;;;;;13.40;5.00;;;;;;;19.95;100.00;100869.21;106514;1250;74428;-76
2023/09/25 20:11:13;;;;;;;9.50;4.80;;;;;;;19.92;100.00;100870.45;106207;1254;69629;-76
2023/09/25 20:13:40;;;;;;;6.50;5.10;;;;;;;19.90;100.00;100872.19;106448;1250;72472;-75
2023/09/25 20:16:07;;;;;;;7.30;5.20;;;;;;;19.85;100.00;100874.34;106625;1251;61146;-76
2023/09/25 20:18:34;;;;;;;5.60;4.70;;;;;;;19.82;100.00;100876.84;106154;1254;61267;-75
2023/09/25 20:21:00;;;;;;;10.80;5.50;;;;;;;19.77;100.00;100876.92;106151;1251;73346;-75
2023/09/25 20:23:27;;;;;;;7.50;5.20;;;;;;;19.72;100.00;100878.20;106510;1250;71181;-75
2023/09/25 20:25:54;;;;;;;7.10;5.20;;;;;;;19.69;100.00;100879.08;106510;1250;72442;-75
2023/09/25 20:28:21;;;;;;;5.70;5.10;;;;;;;19.65;100.00;100878.00;106152;1250;61375;-77
2023/09/25 20:30:49;;;;;;;7.60;4.90;;;;;;;19.62;100.00;100880.64;106243;1250;61365;-75
2023/09/25 20:33:18;;;;;;;7.90;5.50;;;;;;;19.59;100.00;100881.52;107217;1250;75365;-75
2023/09/25 20:35:45;;;;;;;9.60;5.70;;;;;;;19.56;100.00;100880.94;106200;1250;70894;-75
2023/09/25 20:38:12;;;;;;;6.60;4.80;;;;;;;19.53;100.00;100885.20;106491;1253;72514;-76
2023/09/25 20:40:39;;;;;;;6.60;5.20;;;;;;;19.49;100.00;100887.70;106156;1250;62067;-76
2023/09/25 20:43:06;;;;;;;8.80;5.70;;;;;;;19.46;100.00;100885.04;106511;1250;61375;-76
2023/09/25 20:45:34;;;;;;;9.00;5.90;;;;;;;19.43;100.00;100886.78;106124;1255;74593;-76
2023/09/25 20:48:00;;;;;;;9.70;5.20;;;;;;;19.40;100.00;100882.81;106183;1250;70954;-75
2023/09/25 20:50:27;;;;;;;10.00;5.40;;;;;;;19.38;100.00;100883.30;106142;1250;71287;-76
2023/09/25 20:52:54;;;;;;;7.60;5.40;;;;;;;19.36;100.00;100886.80;106177;1250;62335;-75
2023/09/25 20:55:22;;;;;;;6.00;5.30;;;;;;;19.33;100.00;100893.88;106161;1250;61320;-75
2023/09/25 20:57:48;;;;;;;12.40;5.70;;;;;;;19.29;100.00;100897.41;106195;1253;74439;-76
2023/09/25 21:00:15;;;;;;;10.50;5.60;;;;;;;19.26;100.00;100900.77;106063;1250;71080;-76
2023/09/25 21:02:42;;;;;;;7.10;5.30;;;;;;;19.22;100.00;100896.52;106151;1254;71452;-76
2023/09/25 21:05:10;;;;;;;7.90;5.80;;;;;;;19.20;100.00;100892.52;106125;1250;61869;-75
2023/09/25 21:07:37;;;;;;;12.20;6.30;;;;;;;19.17;100.00;100891.08;107117;1250;61222;-75
2023/09/25 21:10:04;;;;;;;9.70;5.50;;;;;;;19.13;100.00;100892.13;106561;1254;74740;-76
2023/09/25 21:12:31;;;;;;;6.50;5.50;;;;;;;19.10;100.00;100893.34;106154;1250;70962;-75
2023/09/25 21:14:57;;;;;;;11.30;6.00;;;;;;;19.06;100.00;100890.89;106134;1250;61228;-76
2023/09/25 21:17:24;;;;;;;11.70;5.20;;;;;;;19.03;100.00;100894.08;106124;1251;61845;-74
2023/09/25 21:19:51;;;;;;;8.00;6.30;;;;;;;19.00;100.00;100892.10;106126;1254;61366;-75
2023/09/25 21:22:17;;;;;;;8.10;5.40;;;;;;;18.95;100.00;100892.10;106145;1250;74965;-73
2023/09/25 21:24:44;;;;;;;9.50;6.10;;;;;;;18.92;100.00;100891.92;106150;1251;70871;-75
2023/09/25 21:27:11;;;;;;;12.40;5.70;;;;;;;18.89;100.00;100893.30;106115;1250;72673;-75
2023/09/25 21:29:40;;;;;;;8.90;6.40;;;;;;;18.86;100.00;100891.84;106180;1254;61279;-76
2023/09/25 21:32:06;;;;;;;6.80;5.90;;;;;;;18.82;100.00;100890.77;106256;1250;61358;-76
2023/09/25 21:34:34;;;;;;;7.00;5.50;;;;;;;18.78;100.00;100888.29;106152;1250;74468;-74
2023/09/25 21:37:01;;;;;;;12.60;5.80;;;;;;;18.74;100.00;100891.66;106042;1250;71066;-75
2023/09/25 21:39:29;;;;;;;7.70;6.30;;;;;;;18.70;100.00;100887.57;106279;1250;72683;-76